sensor_id;sensor_type;location;lat;lon;timestamp;P1;durP1;ratioP1;P2;durP2;ratioP2
64682;SDS011;51107;47.652;19.016;2023-10-19T00:00:50;6.40;;;2.58;;
64682;SDS011;51107;47.652;19.016;2023-10-19T00:03:19;11.80;;;3.90;;
64682;SDS011;51107;47.652;19.016;2023-10-19T00:05:47;4.32;;;2.53;;
64682;SDS011;51107;47.652;19.016;2023-10-19T00:08:16;4.47;;;2.65;;
64682;SDS011;51107;47.652;19.016;2023-10-19T00:10:48;4.97;;;3.22;;
64682;SDS011;51107;47.652;19.016;2023-10-19T00:13:30;5.82;;;3.33;;
64682;SDS011;51107;47.652;19.016;2023-10-19T00:15:59;7.03;;;3.12;;
64682;SDS011;51107;47.652;19.016;2023-10-19T00:18:27;7.07;;;3.90;;
64682;SDS011;51107;47.652;19.016;2023-10-19T00:20:59;5.37;;;2.72;;
64682;SDS011;51107;47.652;19.016;2023-10-19T00:23:27;7.10;;;3.25;;
64682;SDS011;51107;47.652;19.016;2023-10-19T00:26:03;7.47;;;3.28;;
64682;SDS011;51107;47.652;19.016;2023-10-19T00:28:43;6.20;;;3.03;;
64682;SDS011;51107;47.652;19.016;2023-10-19T00:31:17;10.95;;;3.10;;
64682;SDS011;51107;47.652;19.016;2023-10-19T00:33:48;5.57;;;3.10;;
64682;SDS011;51107;47.652;19.016;2023-10-19T00:36:20;5.70;;;3.20;;
64682;SDS011;51107;47.652;19.016;2023-10-19T00:38:50;6.35;;;3.20;;
64682;SDS011;51107;47.652;19.016;2023-10-19T00:41:22;7.25;;;3.05;;
64682;SDS011;51107;47.652;19.016;2023-10-19T00:43:58;6.03;;;3.20;;
64682;SDS011;51107;47.652;19.016;2023-10-19T00:46:40;5.12;;;2.55;;
64682;SDS011;51107;47.652;19.016;2023-10-19T00:49:12;5.53;;;3.15;;
64682;SDS011;51107;47.652;19.016;2023-10-19T00:51:45;7.30;;;2.97;;
64682;SDS011;51107;47.652;19.016;2023-10-19T00:54:35;9.02;;;3.58;;
64682;SDS011;51107;47.652;19.016;2023-10-19T00:57:32;5.12;;;2.80;;
64682;SDS011;51107;47.652;19.016;2023-10-19T01:00:02;5.25;;;2.78;;
64682;SDS011;51107;47.652;19.016;2023-10-19T01:02:40;5.93;;;3.20;;
64682;SDS011;51107;47.652;19.016;2023-10-19T01:05:13;5.72;;;2.80;;
64682;SDS011;51107;47.652;19.016;2023-10-19T01:07:43;7.93;;;2.85;;
64682;SDS011;51107;47.652;19.016;2023-10-19T01:10:12;5.80;;;2.97;;
64682;SDS011;51107;47.652;19.016;2023-10-19T01:12:52;8.35;;;3.33;;
64682;SDS011;51107;47.652;19.016;2023-10-19T01:15:21;7.28;;;3.47;;
64682;SDS011;51107;47.652;19.016;2023-10-19T01:17:58;8.05;;;3.58;;
64682;SDS011;51107;47.652;19.016;2023-10-19T01:20:31;5.05;;;2.90;;
64682;SDS011;51107;47.652;19.016;2023-10-19T01:23:01;4.90;;;3.05;;
64682;SDS011;51107;47.652;19.016;2023-10-19T01:28:31;5.05;;;3.25;;
64682;SDS011;51107;47.652;19.016;2023-10-19T01:31:22;7.43;;;3.62;;
64682;SDS011;51107;47.652;19.016;2023-10-19T01:33:59;9.38;;;3.35;;
64682;SDS011;51107;47.652;19.016;2023-10-19T01:36:35;5.43;;;3.12;;
64682;SDS011;51107;47.652;19.016;2023-10-19T01:39:12;6.07;;;2.72;;
64682;SDS011;51107;47.652;19.016;2023-10-19T01:41:41;5.50;;;2.75;;
64682;SDS011;51107;47.652;19.016;2023-10-19T01:44:10;6.07;;;3.40;;
64682;SDS011;51107;47.652;19.016;2023-10-19T01:46:42;9.90;;;3.72;;
64682;SDS011;51107;47.652;19.016;2023-10-19T01:49:15;6.80;;;3.00;;
64682;SDS011;51107;47.652;19.016;2023-10-19T01:51:54;6.07;;;3.25;;
64682;SDS011;51107;47.652;19.016;2023-10-19T01:54:23;6.15;;;3.03;;
64682;SDS011;51107;47.652;19.016;2023-10-19T01:56:55;6.87;;;3.35;;
64682;SDS011;51107;47.652;19.016;2023-10-19T01:59:28;6.25;;;3.22;;
64682;SDS011;51107;47.652;19.016;2023-10-19T02:01:58;5.70;;;3.53;;
64682;SDS011;51107;47.652;19.016;2023-10-19T02:04:27;4.12;;;2.58;;
64682;SDS011;51107;47.652;19.016;2023-10-19T02:06:56;5.82;;;3.60;;
64682;SDS011;51107;47.652;19.016;2023-10-19T02:09:28;7.37;;;3.25;;
64682;SDS011;51107;47.652;19.016;2023-10-19T02:12:00;9.77;;;3.35;;
64682;SDS011;51107;47.652;19.016;2023-10-19T02:14:33;6.22;;;3.40;;
64682;SDS011;51107;47.652;19.016;2023-10-19T02:17:02;6.62;;;3.33;;
64682;SDS011;51107;47.652;19.016;2023-10-19T02:19:32;9.05;;;3.45;;
64682;SDS011;51107;47.652;19.016;2023-10-19T02:22:03;5.90;;;3.25;;
64682;SDS011;51107;47.652;19.016;2023-10-19T02:27:03;7.35;;;3.80;;
64682;SDS011;51107;47.652;19.016;2023-10-19T02:29:36;6.53;;;2.62;;
64682;SDS011;51107;47.652;19.016;2023-10-19T02:32:04;5.65;;;3.33;;
64682;SDS011;51107;47.652;19.016;2023-10-19T02:34:33;5.85;;;3.45;;
64682;SDS011;51107;47.652;19.016;2023-10-19T02:37:03;9.50;;;3.83;;
64682;SDS011;51107;47.652;19.016;2023-10-19T02:39:31;6.30;;;3.87;;
64682;SDS011;51107;47.652;19.016;2023-10-19T02:41:59;14.75;;;3.00;;
64682;SDS011;51107;47.652;19.016;2023-10-19T02:44:29;5.90;;;3.42;;
64682;SDS011;51107;47.652;19.016;2023-10-19T02:46:59;6.40;;;3.55;;
64682;SDS011;51107;47.652;19.016;2023-10-19T02:49:30;6.95;;;3.53;;
64682;SDS011;51107;47.652;19.016;2023-10-19T02:51:58;9.98;;;4.43;;
64682;SDS011;51107;47.652;19.016;2023-10-19T02:54:32;6.75;;;3.97;;
64682;SDS011;51107;47.652;19.016;2023-10-19T02:57:03;6.53;;;3.62;;
64682;SDS011;51107;47.652;19.016;2023-10-19T02:59:36;9.75;;;4.22;;
64682;SDS011;51107;47.652;19.016;2023-10-19T03:02:04;6.90;;;3.67;;
64682;SDS011;51107;47.652;19.016;2023-10-19T03:04:45;5.70;;;3.42;;
64682;SDS011;51107;47.652;19.016;2023-10-19T03:07:14;8.57;;;4.18;;
64682;SDS011;51107;47.652;19.016;2023-10-19T03:09:43;7.75;;;4.32;;
64682;SDS011;51107;47.652;19.016;2023-10-19T03:12:21;6.90;;;4.43;;
64682;SDS011;51107;47.652;19.016;2023-10-19T03:14:54;10.07;;;5.10;;
64682;SDS011;51107;47.652;19.016;2023-10-19T03:17:23;9.93;;;4.55;;
64682;SDS011;51107;47.652;19.016;2023-10-19T03:19:53;7.78;;;4.10;;
64682;SDS011;51107;47.652;19.016;2023-10-19T03:22:22;12.43;;;5.37;;
64682;SDS011;51107;47.652;19.016;2023-10-19T03:24:51;8.40;;;4.40;;
64682;SDS011;51107;47.652;19.016;2023-10-19T03:27:39;14.00;;;4.97;;
64682;SDS011;51107;47.652;19.016;2023-10-19T03:30:07;10.05;;;4.72;;
64682;SDS011;51107;47.652;19.016;2023-10-19T03:32:42;10.95;;;5.47;;
64682;SDS011;51107;47.652;19.016;2023-10-19T03:35:10;12.20;;;4.97;;
64682;SDS011;51107;47.652;19.016;2023-10-19T03:37:43;9.95;;;4.82;;
64682;SDS011;51107;47.652;19.016;2023-10-19T03:40:16;8.68;;;5.12;;
64682;SDS011;51107;47.652;19.016;2023-10-19T03:42:53;10.48;;;4.80;;
64682;SDS011;51107;47.652;19.016;2023-10-19T03:45:23;12.77;;;5.60;;
64682;SDS011;51107;47.652;19.016;2023-10-19T03:47:52;10.80;;;4.90;;
64682;SDS011;51107;47.652;19.016;2023-10-19T03:50:24;10.57;;;5.30;;
64682;SDS011;51107;47.652;19.016;2023-10-19T03:52:53;12.05;;;5.55;;
64682;SDS011;51107;47.652;19.016;2023-10-19T03:55:21;10.82;;;5.18;;
64682;SDS011;51107;47.652;19.016;2023-10-19T03:57:51;13.93;;;5.35;;
64682;SDS011;51107;47.652;19.016;2023-10-19T04:00:22;9.88;;;5.30;;
64682;SDS011;51107;47.652;19.016;2023-10-19T04:02:56;12.32;;;6.05;;
64682;SDS011;51107;47.652;19.016;2023-10-19T04:05:26;10.68;;;5.70;;
64682;SDS011;51107;47.652;19.016;2023-10-19T04:07:56;15.73;;;6.53;;
64682;SDS011;51107;47.652;19.016;2023-10-19T04:10:29;13.02;;;5.22;;
64682;SDS011;51107;47.652;19.016;2023-10-19T04:12:58;11.80;;;5.07;;
64682;SDS011;51107;47.652;19.016;2023-10-19T04:15:29;10.70;;;5.25;;
64682;SDS011;51107;47.652;19.016;2023-10-19T04:18:03;10.75;;;5.50;;
64682;SDS011;51107;47.652;19.016;2023-10-19T04:20:40;10.48;;;5.03;;
64682;SDS011;51107;47.652;19.016;2023-10-19T04:23:21;10.55;;;5.28;;
64682;SDS011;51107;47.652;19.016;2023-10-19T04:25:50;8.77;;;4.95;;
64682;SDS011;51107;47.652;19.016;2023-10-19T04:28:18;9.45;;;4.78;;
64682;SDS011;51107;47.652;19.016;2023-10-19T04:30:53;10.38;;;4.75;;
64682;SDS011;51107;47.652;19.016;2023-10-19T04:33:22;11.40;;;4.93;;
64682;SDS011;51107;47.652;19.016;2023-10-19T04:35:55;12.90;;;5.50;;
64682;SDS011;51107;47.652;19.016;2023-10-19T04:38:23;8.23;;;5.30;;
64682;SDS011;51107;47.652;19.016;2023-10-19T04:41:07;14.73;;;5.12;;
64682;SDS011;51107;47.652;19.016;2023-10-19T04:43:36;13.02;;;5.82;;
64682;SDS011;51107;47.652;19.016;2023-10-19T04:46:10;11.27;;;5.57;;
64682;SDS011;51107;47.652;19.016;2023-10-19T04:48:40;10.77;;;5.28;;
64682;SDS011;51107;47.652;19.016;2023-10-19T04:51:10;10.48;;;5.45;;
64682;SDS011;51107;47.652;19.016;2023-10-19T04:53:38;7.82;;;4.75;;
64682;SDS011;51107;47.652;19.016;2023-10-19T04:56:07;19.70;;;4.70;;
64682;SDS011;51107;47.652;19.016;2023-10-19T04:58:40;11.68;;;5.57;;
64682;SDS011;51107;47.652;19.016;2023-10-19T05:01:09;9.38;;;4.47;;
64682;SDS011;51107;47.652;19.016;2023-10-19T05:03:40;10.68;;;5.72;;
64682;SDS011;51107;47.652;19.016;2023-10-19T05:06:09;11.90;;;5.30;;
64682;SDS011;51107;47.652;19.016;2023-10-19T05:08:38;10.88;;;5.10;;
64682;SDS011;51107;47.652;19.016;2023-10-19T05:11:07;6.87;;;4.62;;
64682;SDS011;51107;47.652;19.016;2023-10-19T05:13:36;11.02;;;5.65;;
64682;SDS011;51107;47.652;19.016;2023-10-19T05:16:04;8.55;;;5.43;;
64682;SDS011;51107;47.652;19.016;2023-10-19T05:18:32;10.70;;;5.30;;
64682;SDS011;51107;47.652;19.016;2023-10-19T05:21:02;11.07;;;5.00;;
64682;SDS011;51107;47.652;19.016;2023-10-19T05:23:31;7.97;;;4.53;;
64682;SDS011;51107;47.652;19.016;2023-10-19T05:26:00;9.77;;;5.22;;
64682;SDS011;51107;47.652;19.016;2023-10-19T05:28:30;11.70;;;5.57;;
64682;SDS011;51107;47.652;19.016;2023-10-19T05:30:59;7.25;;;4.50;;
64682;SDS011;51107;47.652;19.016;2023-10-19T05:33:27;18.23;;;4.78;;
64682;SDS011;51107;47.652;19.016;2023-10-19T05:35:58;8.85;;;4.62;;
64682;SDS011;51107;47.652;19.016;2023-10-19T05:38:26;10.10;;;4.32;;
64682;SDS011;51107;47.652;19.016;2023-10-19T05:40:56;9.30;;;4.97;;
64682;SDS011;51107;47.652;19.016;2023-10-19T05:43:25;12.60;;;5.45;;
64682;SDS011;51107;47.652;19.016;2023-10-19T05:45:54;10.43;;;4.95;;
64682;SDS011;51107;47.652;19.016;2023-10-19T05:48:22;6.75;;;4.18;;
64682;SDS011;51107;47.652;19.016;2023-10-19T05:50:53;11.90;;;5.25;;
64682;SDS011;51107;47.652;19.016;2023-10-19T05:53:22;7.10;;;4.30;;
64682;SDS011;51107;47.652;19.016;2023-10-19T05:55:50;7.95;;;4.32;;
64682;SDS011;51107;47.652;19.016;2023-10-19T05:58:19;8.82;;;4.47;;
64682;SDS011;51107;47.652;19.016;2023-10-19T06:00:48;8.15;;;3.62;;
64682;SDS011;51107;47.652;19.016;2023-10-19T06:03:20;8.93;;;4.47;;
64682;SDS011;51107;47.652;19.016;2023-10-19T06:05:48;8.38;;;4.87;;
64682;SDS011;51107;47.652;19.016;2023-10-19T06:08:17;7.03;;;4.35;;
64682;SDS011;51107;47.652;19.016;2023-10-19T06:10:50;8.18;;;4.68;;
64682;SDS011;51107;47.652;19.016;2023-10-19T06:13:19;10.18;;;4.65;;
64682;SDS011;51107;47.652;19.016;2023-10-19T06:15:50;8.77;;;5.30;;
64682;SDS011;51107;47.652;19.016;2023-10-19T06:18:19;8.50;;;4.57;;
64682;SDS011;51107;47.652;19.016;2023-10-19T06:20:48;10.15;;;4.45;;
64682;SDS011;51107;47.652;19.016;2023-10-19T06:23:18;15.15;;;5.00;;
64682;SDS011;51107;47.652;19.016;2023-10-19T06:25:47;7.00;;;4.32;;
64682;SDS011;51107;47.652;19.016;2023-10-19T06:28:15;8.65;;;4.12;;
64682;SDS011;51107;47.652;19.016;2023-10-19T06:30:44;6.35;;;4.10;;
64682;SDS011;51107;47.652;19.016;2023-10-19T06:33:12;9.63;;;4.22;;
64682;SDS011;51107;47.652;19.016;2023-10-19T06:35:41;10.10;;;4.45;;
64682;SDS011;51107;47.652;19.016;2023-10-19T06:38:10;7.60;;;4.35;;
64682;SDS011;51107;47.652;19.016;2023-10-19T06:40:38;8.90;;;4.72;;
64682;SDS011;51107;47.652;19.016;2023-10-19T06:43:06;7.68;;;4.25;;
64682;SDS011;51107;47.652;19.016;2023-10-19T06:45:35;8.85;;;4.53;;
64682;SDS011;51107;47.652;19.016;2023-10-19T06:48:04;6.65;;;4.10;;
64682;SDS011;51107;47.652;19.016;2023-10-19T06:50:34;8.98;;;4.62;;
64682;SDS011;51107;47.652;19.016;2023-10-19T06:53:03;9.05;;;4.28;;
64682;SDS011;51107;47.652;19.016;2023-10-19T06:55:35;7.95;;;4.62;;
64682;SDS011;51107;47.652;19.016;2023-10-19T06:58:03;5.60;;;3.65;;
64682;SDS011;51107;47.652;19.016;2023-10-19T07:00:32;8.93;;;4.37;;
64682;SDS011;51107;47.652;19.016;2023-10-19T07:03:02;10.63;;;4.40;;
64682;SDS011;51107;47.652;19.016;2023-10-19T07:05:31;6.00;;;3.62;;
64682;SDS011;51107;47.652;19.016;2023-10-19T07:07:59;12.27;;;5.15;;
64682;SDS011;51107;47.652;19.016;2023-10-19T07:10:30;8.90;;;4.53;;
64682;SDS011;51107;47.652;19.016;2023-10-19T07:12:58;9.00;;;3.90;;
64682;SDS011;51107;47.652;19.016;2023-10-19T07:15:26;10.02;;;4.40;;
64682;SDS011;51107;47.652;19.016;2023-10-19T07:17:56;7.50;;;4.07;;
64682;SDS011;51107;47.652;19.016;2023-10-19T07:20:26;6.85;;;3.90;;
64682;SDS011;51107;47.652;19.016;2023-10-19T07:22:56;7.12;;;4.18;;
64682;SDS011;51107;47.652;19.016;2023-10-19T07:25:34;14.10;;;4.53;;
64682;SDS011;51107;47.652;19.016;2023-10-19T07:28:11;8.30;;;4.25;;
64682;SDS011;51107;47.652;19.016;2023-10-19T07:30:41;7.70;;;4.12;;
64682;SDS011;51107;47.652;19.016;2023-10-19T07:33:10;7.90;;;4.40;;
64682;SDS011;51107;47.652;19.016;2023-10-19T07:35:46;5.25;;;3.15;;
64682;SDS011;51107;47.652;19.016;2023-10-19T07:38:15;7.00;;;4.00;;
64682;SDS011;51107;47.652;19.016;2023-10-19T07:40:45;9.13;;;4.37;;
64682;SDS011;51107;47.652;19.016;2023-10-19T07:43:13;11.85;;;5.18;;
64682;SDS011;51107;47.652;19.016;2023-10-19T07:45:41;7.35;;;4.25;;
64682;SDS011;51107;47.652;19.016;2023-10-19T07:48:11;7.40;;;4.30;;
64682;SDS011;51107;47.652;19.016;2023-10-19T07:50:39;8.38;;;4.55;;
64682;SDS011;51107;47.652;19.016;2023-10-19T07:53:11;6.72;;;3.65;;
64682;SDS011;51107;47.652;19.016;2023-10-19T07:55:39;7.12;;;4.45;;
64682;SDS011;51107;47.652;19.016;2023-10-19T07:58:08;9.32;;;4.32;;
64682;SDS011;51107;47.652;19.016;2023-10-19T08:00:36;7.28;;;3.78;;
64682;SDS011;51107;47.652;19.016;2023-10-19T08:03:05;5.60;;;3.35;;
64682;SDS011;51107;47.652;19.016;2023-10-19T08:05:35;12.88;;;5.80;;
64682;SDS011;51107;47.652;19.016;2023-10-19T08:08:04;8.85;;;4.68;;
64682;SDS011;51107;47.652;19.016;2023-10-19T08:10:34;6.62;;;4.15;;
64682;SDS011;51107;47.652;19.016;2023-10-19T08:13:02;9.65;;;4.95;;
64682;SDS011;51107;47.652;19.016;2023-10-19T08:15:31;10.88;;;4.95;;
64682;SDS011;51107;47.652;19.016;2023-10-19T08:17:59;6.97;;;4.10;;
64682;SDS011;51107;47.652;19.016;2023-10-19T08:20:28;8.93;;;4.72;;
64682;SDS011;51107;47.652;19.016;2023-10-19T08:23:00;8.00;;;4.10;;
64682;SDS011;51107;47.652;19.016;2023-10-19T08:25:33;7.55;;;4.45;;
64682;SDS011;51107;47.652;19.016;2023-10-19T08:28:22;6.87;;;4.37;;
64682;SDS011;51107;47.652;19.016;2023-10-19T08:30:51;7.97;;;4.60;;
64682;SDS011;51107;47.652;19.016;2023-10-19T08:33:26;9.60;;;4.40;;
64682;SDS011;51107;47.652;19.016;2023-10-19T08:35:58;11.98;;;6.22;;
64682;SDS011;51107;47.652;19.016;2023-10-19T08:38:28;25.10;;;10.38;;
64682;SDS011;51107;47.652;19.016;2023-10-19T08:40:57;39.22;;;13.75;;
64682;SDS011;51107;47.652;19.016;2023-10-19T08:43:26;12.00;;;6.10;;
64682;SDS011;51107;47.652;19.016;2023-10-19T08:45:56;12.60;;;5.00;;
64682;SDS011;51107;47.652;19.016;2023-10-19T08:48:25;9.73;;;4.93;;
64682;SDS011;51107;47.652;19.016;2023-10-19T08:50:53;8.25;;;4.68;;
64682;SDS011;51107;47.652;19.016;2023-10-19T08:53:24;11.18;;;5.62;;
64682;SDS011;51107;47.652;19.016;2023-10-19T08:55:53;11.15;;;4.87;;
64682;SDS011;51107;47.652;19.016;2023-10-19T08:58:23;8.20;;;4.85;;
64682;SDS011;51107;47.652;19.016;2023-10-19T09:00:52;11.07;;;5.25;;
64682;SDS011;51107;47.652;19.016;2023-10-19T09:03:24;10.57;;;4.70;;
64682;SDS011;51107;47.652;19.016;2023-10-19T09:05:55;11.88;;;5.57;;
64682;SDS011;51107;47.652;19.016;2023-10-19T09:08:25;8.50;;;4.87;;
64682;SDS011;51107;47.652;19.016;2023-10-19T09:10:53;13.35;;;4.82;;
64682;SDS011;51107;47.652;19.016;2023-10-19T09:13:24;8.07;;;4.37;;
64682;SDS011;51107;47.652;19.016;2023-10-19T09:15:53;9.93;;;5.18;;
64682;SDS011;51107;47.652;19.016;2023-10-19T09:18:24;10.80;;;5.18;;
64682;SDS011;51107;47.652;19.016;2023-10-19T09:20:58;10.18;;;4.82;;
64682;SDS011;51107;47.652;19.016;2023-10-19T09:23:39;9.18;;;4.87;;
64682;SDS011;51107;47.652;19.016;2023-10-19T09:26:08;8.98;;;4.80;;
64682;SDS011;51107;47.652;19.016;2023-10-19T09:28:36;9.40;;;5.20;;
64682;SDS011;51107;47.652;19.016;2023-10-19T09:31:06;10.38;;;5.12;;
64682;SDS011;51107;47.652;19.016;2023-10-19T09:33:40;12.70;;;5.53;;
64682;SDS011;51107;47.652;19.016;2023-10-19T09:36:09;8.10;;;4.30;;
64682;SDS011;51107;47.652;19.016;2023-10-19T09:41:21;9.00;;;4.35;;
64682;SDS011;51107;47.652;19.016;2023-10-19T09:43:50;11.32;;;5.37;;
64682;SDS011;51107;47.652;19.016;2023-10-19T09:46:22;9.10;;;5.07;;
64682;SDS011;51107;47.652;19.016;2023-10-19T09:48:54;9.90;;;5.28;;
64682;SDS011;51107;47.652;19.016;2023-10-19T09:51:23;8.00;;;4.80;;
64682;SDS011;51107;47.652;19.016;2023-10-19T09:54:14;8.13;;;4.62;;
64682;SDS011;51107;47.652;19.016;2023-10-19T09:56:52;10.75;;;5.37;;
64682;SDS011;51107;47.652;19.016;2023-10-19T09:59:31;8.95;;;4.45;;
64682;SDS011;51107;47.652;19.016;2023-10-19T10:04:42;11.82;;;5.65;;
64682;SDS011;51107;47.652;19.016;2023-10-19T10:07:15;9.57;;;5.53;;
64682;SDS011;51107;47.652;19.016;2023-10-19T10:10:06;10.13;;;4.72;;
64682;SDS011;51107;47.652;19.016;2023-10-19T10:12:36;9.45;;;4.95;;
64682;SDS011;51107;47.652;19.016;2023-10-19T10:15:04;11.55;;;6.07;;
64682;SDS011;51107;47.652;19.016;2023-10-19T10:17:38;14.55;;;6.45;;
64682;SDS011;51107;47.652;19.016;2023-10-19T10:22:42;12.13;;;6.10;;
64682;SDS011;51107;47.652;19.016;2023-10-19T10:25:26;11.18;;;5.43;;
64682;SDS011;51107;47.652;19.016;2023-10-19T10:30:24;10.27;;;4.87;;
64682;SDS011;51107;47.652;19.016;2023-10-19T10:32:53;12.85;;;6.05;;
64682;SDS011;51107;47.652;19.016;2023-10-19T10:38:07;12.10;;;6.53;;
64682;SDS011;51107;47.652;19.016;2023-10-19T10:40:49;10.50;;;5.80;;
64682;SDS011;51107;47.652;19.016;2023-10-19T10:43:19;18.80;;;6.25;;
64682;SDS011;51107;47.652;19.016;2023-10-19T10:45:50;12.70;;;6.05;;
64682;SDS011;51107;47.652;19.016;2023-10-19T10:48:20;12.37;;;4.82;;
64682;SDS011;51107;47.652;19.016;2023-10-19T10:50:48;10.48;;;5.45;;
64682;SDS011;51107;47.652;19.016;2023-10-19T10:53:17;10.73;;;5.35;;
64682;SDS011;51107;47.652;19.016;2023-10-19T10:55:46;11.93;;;5.57;;
64682;SDS011;51107;47.652;19.016;2023-10-19T10:58:15;15.23;;;6.45;;
64682;SDS011;51107;47.652;19.016;2023-10-19T11:00:44;10.85;;;5.37;;
64682;SDS011;51107;47.652;19.016;2023-10-19T11:03:19;11.48;;;5.68;;
64682;SDS011;51107;47.652;19.016;2023-10-19T11:05:50;11.95;;;5.50;;
64682;SDS011;51107;47.652;19.016;2023-10-19T11:08:18;10.10;;;5.85;;
64682;SDS011;51107;47.652;19.016;2023-10-19T11:10:49;11.43;;;5.50;;
64682;SDS011;51107;47.652;19.016;2023-10-19T11:13:22;11.18;;;5.97;;
64682;SDS011;51107;47.652;19.016;2023-10-19T11:15:57;14.18;;;6.10;;
64682;SDS011;51107;47.652;19.016;2023-10-19T11:18:30;16.37;;;6.03;;
64682;SDS011;51107;47.652;19.016;2023-10-19T11:21:01;13.03;;;6.90;;
64682;SDS011;51107;47.652;19.016;2023-10-19T11:23:35;22.03;;;6.37;;
64682;SDS011;51107;47.652;19.016;2023-10-19T11:26:05;15.48;;;6.25;;
64682;SDS011;51107;47.652;19.016;2023-10-19T11:28:34;9.23;;;5.32;;
64682;SDS011;51107;47.652;19.016;2023-10-19T11:31:10;10.82;;;5.25;;
64682;SDS011;51107;47.652;19.016;2023-10-19T11:33:43;11.55;;;5.90;;
64682;SDS011;51107;47.652;19.016;2023-10-19T11:36:17;10.75;;;5.75;;
64682;SDS011;51107;47.652;19.016;2023-10-19T11:38:46;12.13;;;5.95;;
64682;SDS011;51107;47.652;19.016;2023-10-19T11:41:15;11.80;;;6.47;;
64682;SDS011;51107;47.652;19.016;2023-10-19T11:43:45;13.80;;;5.93;;
64682;SDS011;51107;47.652;19.016;2023-10-19T11:46:14;13.73;;;6.20;;
64682;SDS011;51107;47.652;19.016;2023-10-19T11:48:45;13.68;;;5.85;;
64682;SDS011;51107;47.652;19.016;2023-10-19T11:51:14;11.98;;;5.72;;
64682;SDS011;51107;47.652;19.016;2023-10-19T11:53:42;11.95;;;5.82;;
64682;SDS011;51107;47.652;19.016;2023-10-19T11:56:11;11.98;;;6.43;;
64682;SDS011;51107;47.652;19.016;2023-10-19T11:58:41;15.80;;;6.57;;
64682;SDS011;51107;47.652;19.016;2023-10-19T12:01:10;13.93;;;6.37;;
64682;SDS011;51107;47.652;19.016;2023-10-19T12:03:46;14.35;;;6.22;;
64682;SDS011;51107;47.652;19.016;2023-10-19T12:06:16;12.95;;;5.93;;
64682;SDS011;51107;47.652;19.016;2023-10-19T12:08:48;12.02;;;5.60;;
64682;SDS011;51107;47.652;19.016;2023-10-19T12:11:16;10.55;;;5.37;;
64682;SDS011;51107;47.652;19.016;2023-10-19T12:13:46;14.50;;;6.40;;
64682;SDS011;51107;47.652;19.016;2023-10-19T12:16:16;12.00;;;6.28;;
64682;SDS011;51107;47.652;19.016;2023-10-19T12:18:44;13.30;;;6.15;;
64682;SDS011;51107;47.652;19.016;2023-10-19T12:21:14;17.30;;;6.70;;
64682;SDS011;51107;47.652;19.016;2023-10-19T12:23:45;12.73;;;5.68;;
64682;SDS011;51107;47.652;19.016;2023-10-19T12:26:22;15.52;;;6.50;;
64682;SDS011;51107;47.652;19.016;2023-10-19T12:28:52;12.48;;;6.45;;
64682;SDS011;51107;47.652;19.016;2023-10-19T12:31:20;9.95;;;6.22;;
64682;SDS011;51107;47.652;19.016;2023-10-19T12:33:51;13.27;;;5.87;;
64682;SDS011;51107;47.652;19.016;2023-10-19T12:36:20;17.17;;;6.95;;
64682;SDS011;51107;47.652;19.016;2023-10-19T12:38:55;10.82;;;5.75;;
64682;SDS011;51107;47.652;19.016;2023-10-19T12:41:25;14.38;;;6.85;;
64682;SDS011;51107;47.652;19.016;2023-10-19T12:43:55;15.57;;;6.80;;
64682;SDS011;51107;47.652;19.016;2023-10-19T12:46:28;12.32;;;6.10;;
64682;SDS011;51107;47.652;19.016;2023-10-19T12:48:57;14.57;;;6.20;;
64682;SDS011;51107;47.652;19.016;2023-10-19T12:51:26;11.70;;;6.40;;
64682;SDS011;51107;47.652;19.016;2023-10-19T12:53:55;11.73;;;6.12;;
64682;SDS011;51107;47.652;19.016;2023-10-19T12:56:23;13.05;;;6.82;;
64682;SDS011;51107;47.652;19.016;2023-10-19T12:58:52;13.85;;;6.45;;
64682;SDS011;51107;47.652;19.016;2023-10-19T13:01:22;16.98;;;7.07;;
64682;SDS011;51107;47.652;19.016;2023-10-19T13:03:51;12.52;;;7.12;;
64682;SDS011;51107;47.652;19.016;2023-10-19T13:06:19;15.65;;;6.78;;
64682;SDS011;51107;47.652;19.016;2023-10-19T13:08:48;10.15;;;5.57;;
64682;SDS011;51107;47.652;19.016;2023-10-19T13:11:16;15.70;;;6.85;;
64682;SDS011;51107;47.652;19.016;2023-10-19T13:13:46;14.48;;;6.43;;
64682;SDS011;51107;47.652;19.016;2023-10-19T13:16:15;11.02;;;6.12;;
64682;SDS011;51107;47.652;19.016;2023-10-19T13:18:44;11.10;;;6.57;;
64682;SDS011;51107;47.652;19.016;2023-10-19T13:21:13;15.32;;;6.40;;
64682;SDS011;51107;47.652;19.016;2023-10-19T13:23:50;11.57;;;5.97;;
64682;SDS011;51107;47.652;19.016;2023-10-19T13:26:18;12.02;;;6.37;;
64682;SDS011;51107;47.652;19.016;2023-10-19T13:28:47;11.68;;;5.90;;
64682;SDS011;51107;47.652;19.016;2023-10-19T13:31:17;10.38;;;5.40;;
64682;SDS011;51107;47.652;19.016;2023-10-19T13:33:47;11.23;;;6.40;;
64682;SDS011;51107;47.652;19.016;2023-10-19T13:36:16;12.98;;;6.03;;
64682;SDS011;51107;47.652;19.016;2023-10-19T13:38:44;12.52;;;6.18;;
64682;SDS011;51107;47.652;19.016;2023-10-19T13:41:13;10.43;;;6.12;;
64682;SDS011;51107;47.652;19.016;2023-10-19T13:43:44;13.20;;;6.22;;
64682;SDS011;51107;47.652;19.016;2023-10-19T13:46:13;18.40;;;6.72;;
64682;SDS011;51107;47.652;19.016;2023-10-19T13:48:41;11.12;;;6.03;;
64682;SDS011;51107;47.652;19.016;2023-10-19T13:51:10;11.93;;;6.40;;
64682;SDS011;51107;47.652;19.016;2023-10-19T13:53:41;14.25;;;6.28;;
64682;SDS011;51107;47.652;19.016;2023-10-19T13:56:11;15.60;;;6.15;;
64682;SDS011;51107;47.652;19.016;2023-10-19T13:58:40;10.65;;;5.95;;
64682;SDS011;51107;47.652;19.016;2023-10-19T14:01:09;13.02;;;6.03;;
64682;SDS011;51107;47.652;19.016;2023-10-19T14:03:38;15.30;;;7.53;;
64682;SDS011;51107;47.652;19.016;2023-10-19T14:06:14;12.13;;;5.65;;
64682;SDS011;51107;47.652;19.016;2023-10-19T14:08:44;12.18;;;6.32;;
64682;SDS011;51107;47.652;19.016;2023-10-19T14:11:13;10.55;;;6.30;;
64682;SDS011;51107;47.652;19.016;2023-10-19T14:13:41;22.52;;;6.78;;
64682;SDS011;51107;47.652;19.016;2023-10-19T14:16:11;12.85;;;7.07;;
64682;SDS011;51107;47.652;19.016;2023-10-19T14:18:39;16.98;;;7.20;;
64682;SDS011;51107;47.652;19.016;2023-10-19T14:21:13;19.05;;;9.43;;
64682;SDS011;51107;47.652;19.016;2023-10-19T14:23:47;21.50;;;9.10;;
64682;SDS011;51107;47.652;19.016;2023-10-19T14:26:16;14.07;;;7.30;;
64682;SDS011;51107;47.652;19.016;2023-10-19T14:28:45;14.50;;;7.68;;
64682;SDS011;51107;47.652;19.016;2023-10-19T14:31:14;13.88;;;6.72;;
64682;SDS011;51107;47.652;19.016;2023-10-19T14:33:44;15.25;;;7.53;;
64682;SDS011;51107;47.652;19.016;2023-10-19T14:36:13;13.13;;;6.45;;
64682;SDS011;51107;47.652;19.016;2023-10-19T14:38:41;15.20;;;7.32;;
64682;SDS011;51107;47.652;19.016;2023-10-19T14:41:11;19.25;;;7.68;;
64682;SDS011;51107;47.652;19.016;2023-10-19T14:43:40;20.88;;;8.60;;
64682;SDS011;51107;47.652;19.016;2023-10-19T14:46:08;14.38;;;6.87;;
64682;SDS011;51107;47.652;19.016;2023-10-19T14:48:37;16.27;;;8.43;;
64682;SDS011;51107;47.652;19.016;2023-10-19T14:51:05;16.40;;;7.60;;
64682;SDS011;51107;47.652;19.016;2023-10-19T14:53:34;15.02;;;6.40;;
64682;SDS011;51107;47.652;19.016;2023-10-19T14:56:03;14.20;;;7.30;;
64682;SDS011;51107;47.652;19.016;2023-10-19T14:58:32;14.90;;;7.70;;
64682;SDS011;51107;47.652;19.016;2023-10-19T15:01:01;16.35;;;7.25;;
64682;SDS011;51107;47.652;19.016;2023-10-19T15:03:30;15.57;;;7.22;;
64682;SDS011;51107;47.652;19.016;2023-10-19T15:05:59;18.05;;;8.23;;
64682;SDS011;51107;47.652;19.016;2023-10-19T15:08:28;16.05;;;7.43;;